createdAt,value
2023-04-29T00:00:09.840Z,23.45
2023-04-29T00:03:16.184Z,25.13
2023-04-29T00:06:19.615Z,20.52
2023-04-29T00:09:23.017Z,25.02
2023-04-29T00:12:28.131Z,24.70
2023-04-29T00:15:31.272Z,22.00
2023-04-29T00:18:36.711Z,23.05
2023-04-29T00:21:39.911Z,23.17
2023-04-29T00:24:43.085Z,20.50
2023-04-29T00:27:47.612Z,18.15
2023-04-29T00:30:51.292Z,18.60
2023-04-29T00:33:54.603Z,21.73
2023-04-29T00:36:57.876Z,20.85
2023-04-29T00:40:01.026Z,20.23
2023-04-29T00:43:05.720Z,18.00
2023-04-29T00:46:10.445Z,17.80
2023-04-29T00:49:16.179Z,19.05
2023-04-29T00:52:20.009Z,25.27
2023-04-29T00:55:24.807Z,18.80
2023-04-29T00:58:33.635Z,17.55
2023-04-29T01:01:38.107Z,21.63
2023-04-29T01:04:41.400Z,18.17
2023-04-29T01:07:49.970Z,21.30
2023-04-29T01:10:58.314Z,20.40
2023-04-29T01:14:04.850Z,20.00
2023-04-29T01:17:16.652Z,21.23
2023-04-29T01:20:22.256Z,18.95
2023-04-29T01:23:28.613Z,18.05
2023-04-29T01:26:35.409Z,20.52
2023-04-29T01:30:01.310Z,19.33
2023-04-29T01:33:15.944Z,26.30
2023-04-29T01:36:27.933Z,19.73
2023-04-29T01:39:38.913Z,19.38
2023-04-29T01:42:49.137Z,16.55
2023-04-29T01:45:56.120Z,18.08
2023-04-29T01:48:59.625Z,16.70
2023-04-29T01:52:03.408Z,21.65
2023-04-29T01:55:09.599Z,23.05
2023-04-29T01:58:20.119Z,18.63
2023-04-29T02:01:42.138Z,17.27
2023-04-29T02:04:46.153Z,17.95
2023-04-29T02:07:49.538Z,16.67
2023-04-29T02:10:59.164Z,18.67
2023-04-29T02:14:16.785Z,18.80
2023-04-29T02:17:20.168Z,16.35
2023-04-29T02:20:23.358Z,18.42
2023-04-29T02:23:26.570Z,19.95
2023-04-29T02:26:31.177Z,22.42
2023-04-29T02:29:34.556Z,18.38
2023-04-29T02:32:39.339Z,15.00
2023-04-29T02:35:42.658Z,16.50
2023-04-29T02:38:46.170Z,19.48
2023-04-29T02:41:50.992Z,16.77
2023-04-29T02:44:54.450Z,16.65
2023-04-29T02:47:57.716Z,20.05
2023-04-29T02:51:01.216Z,19.10
2023-04-29T02:54:04.471Z,19.50
2023-04-29T02:57:09.219Z,16.30
2023-04-29T03:00:13.034Z,17.70
2023-04-29T03:03:16.323Z,18.10
2023-04-29T03:06:19.522Z,16.92
2023-04-29T03:09:22.800Z,16.58
2023-04-29T03:12:27.786Z,18.23
2023-04-29T03:15:31.186Z,16.35
2023-04-29T03:18:34.408Z,22.95
2023-04-29T03:21:37.665Z,17.83
2023-04-29T03:24:41.141Z,17.33
2023-04-29T03:27:45.898Z,19.52
2023-04-29T03:30:49.048Z,19.20
2023-04-29T03:33:53.480Z,17.45
2023-04-29T03:36:57.553Z,27.80
2023-04-29T03:40:00.819Z,17.38
2023-04-29T03:43:06.823Z,21.63
2023-04-29T03:46:10.097Z,20.20
2023-04-29T03:49:13.572Z,24.25
2023-04-29T03:52:17.231Z,18.55
2023-04-29T03:55:22.619Z,24.17
2023-04-29T03:58:27.311Z,24.60
2023-04-29T04:01:30.691Z,23.00
2023-04-29T04:04:34.600Z,20.48
2023-04-29T04:07:37.945Z,21.00
2023-04-29T04:11:03.012Z,19.88
2023-04-29T04:14:18.564Z,17.92
2023-04-29T04:17:25.238Z,21.45
2023-04-29T04:20:28.416Z,22.52
2023-04-29T04:23:32.064Z,17.42
2023-04-29T04:26:39.660Z,18.50
2023-04-29T04:29:57.232Z,22.83
2023-04-29T04:33:06.131Z,20.40
2023-04-29T04:36:10.226Z,17.88
2023-04-29T04:39:13.664Z,25.52
2023-04-29T04:42:17.018Z,19.95
2023-04-29T04:45:24.291Z,22.02
2023-04-29T04:48:28.032Z,20.10
2023-04-29T04:51:31.398Z,18.90
2023-04-29T04:54:35.882Z,24.10
2023-04-29T04:57:49.480Z,15.80
2023-04-29T05:00:54.739Z,20.25
2023-04-29T05:03:58.589Z,25.98
2023-04-29T05:07:02.013Z,17.10
2023-04-29T05:10:12.183Z,16.25
2023-04-29T05:13:22.593Z,23.40
2023-04-29T05:16:27.289Z,21.17
2023-04-29T05:19:31.329Z,21.38
2023-04-29T05:22:34.585Z,17.17
2023-04-29T05:25:38.619Z,24.77
2023-04-29T05:28:42.578Z,23.60
2023-04-29T05:31:47.916Z,21.58
2023-04-29T05:34:51.198Z,18.23
2023-04-29T05:37:54.584Z,21.05
2023-04-29T05:41:05.764Z,21.45
2023-04-29T05:44:44.543Z,19.42
2023-04-29T05:47:49.691Z,18.60
2023-04-29T05:50:54.105Z,15.18
2023-04-29T05:53:59.472Z,21.98
2023-04-29T05:57:03.571Z,26.02
2023-04-29T06:00:08.018Z,19.27
2023-04-29T06:03:18.194Z,12.65
2023-04-29T06:06:21.947Z,19.52
2023-04-29T06:09:44.572Z,15.48
2023-04-29T06:12:50.811Z,17.35
2023-04-29T06:15:54.101Z,16.58
2023-04-29T06:18:59.003Z,20.40
2023-04-29T06:22:02.228Z,15.20
2023-04-29T06:25:07.199Z,13.38
2023-04-29T06:28:23.450Z,12.25
2023-04-29T06:31:27.109Z,14.45
2023-04-29T06:34:37.122Z,15.02
2023-04-29T06:38:01.395Z,11.88
2023-04-29T06:41:23.684Z,11.98
2023-04-29T06:44:29.774Z,10.55
2023-04-29T06:47:51.404Z,10.25
2023-04-29T06:51:09.163Z,13.30
2023-04-29T06:54:14.083Z,9.45
2023-04-29T06:57:18.414Z,16.23
2023-04-29T07:00:22.891Z,15.38
2023-04-29T07:03:26.492Z,12.48
2023-04-29T07:06:31.784Z,11.52
2023-04-29T07:09:35.352Z,12.15
2023-04-29T07:12:40.819Z,12.38
2023-04-29T07:15:44.088Z,12.95
2023-04-29T07:18:47.382Z,15.40
2023-04-29T07:21:52.131Z,9.23
2023-04-29T07:24:55.843Z,12.27
2023-04-29T07:27:59.487Z,14.77
2023-04-29T07:31:02.945Z,14.52
2023-04-29T07:34:08.016Z,16.13
2023-04-29T07:37:12.899Z,11.50
2023-04-29T07:40:16.227Z,11.45
2023-04-29T07:43:20.095Z,10.00
2023-04-29T07:46:23.652Z,13.18
2023-04-29T07:49:27.311Z,15.77
2023-04-29T07:52:31.941Z,10.05
2023-04-29T07:55:35.488Z,9.23
2023-04-29T07:58:39.039Z,12.80
2023-04-29T08:01:42.496Z,14.07
2023-04-29T08:04:45.951Z,9.70
2023-04-29T08:07:52.004Z,13.75
2023-04-29T08:10:55.267Z,13.15
2023-04-29T08:14:00.149Z,16.85
2023-04-29T08:17:03.488Z,14.23
2023-04-29T08:20:09.416Z,14.43
2023-04-29T08:23:14.257Z,11.98
2023-04-29T08:26:17.584Z,14.07
2023-04-29T08:29:20.889Z,18.85
2023-04-29T08:32:24.423Z,10.52
2023-04-29T08:35:27.831Z,14.50
2023-04-29T08:38:32.598Z,31.38
2023-04-29T08:41:37.837Z,12.43
2023-04-29T08:44:42.108Z,11.98
2023-04-29T08:47:45.791Z,12.82
2023-04-29T08:50:49.018Z,10.70
2023-04-29T08:53:53.797Z,9.25
2023-04-29T08:56:58.044Z,14.80
2023-04-29T09:00:02.605Z,15.80
2023-04-29T09:03:16.015Z,16.90
2023-04-29T09:06:21.286Z,14.13
2023-04-29T09:09:26.808Z,18.02
2023-04-29T09:12:30.603Z,11.63
2023-04-29T09:15:37.960Z,15.65
2023-04-29T09:18:46.268Z,16.75
2023-04-29T09:21:56.663Z,10.50
2023-04-29T09:28:17.792Z,15.48
2023-04-29T09:31:29.213Z,11.98
2023-04-29T09:34:35.961Z,16.65
2023-04-29T09:37:39.157Z,11.40
2023-04-29T09:40:57.496Z,16.73
2023-04-29T09:44:06.406Z,16.65
2023-04-29T09:47:11.185Z,15.07
2023-04-29T09:50:16.327Z,16.35
2023-04-29T09:53:31.437Z,14.55
2023-04-29T09:56:50.930Z,11.75
2023-04-29T09:59:54.119Z,9.07
2023-04-29T10:03:01.359Z,11.45
2023-04-29T10:06:06.517Z,11.90
2023-04-29T10:09:16.024Z,13.18
2023-04-29T10:12:21.813Z,10.53
2023-04-29T10:15:30.727Z,11.35
2023-04-29T10:18:38.626Z,9.80
2023-04-29T10:21:42.231Z,8.30
2023-04-29T10:24:46.749Z,14.00
2023-04-29T10:27:53.512Z,10.45
2023-04-29T10:30:59.063Z,10.95
2023-04-29T10:34:02.735Z,12.90
2023-04-29T10:37:06.907Z,9.30
2023-04-29T10:40:16.240Z,11.23
2023-04-29T10:43:24.835Z,10.27
2023-04-29T10:46:28.495Z,9.23
2023-04-29T10:49:35.964Z,8.70
2023-04-29T10:52:55.848Z,7.47
2023-04-29T10:56:01.008Z,10.60
2023-04-29T10:59:05.668Z,10.57
2023-04-29T11:02:11.108Z,10.30
2023-04-29T11:05:14.473Z,13.75
2023-04-29T11:08:26.478Z,12.55
2023-04-29T11:11:45.456Z,9.70
2023-04-29T11:14:53.343Z,10.05
2023-04-29T11:18:01.675Z,10.85
2023-04-29T11:21:14.955Z,10.25
2023-04-29T11:24:18.208Z,8.63
2023-04-29T11:27:25.374Z,8.23
2023-04-29T11:30:31.379Z,12.43
2023-04-29T11:33:34.802Z,14.05
2023-04-29T11:36:38.228Z,11.65
2023-04-29T11:39:41.517Z,14.50
2023-04-29T11:42:47.952Z,16.30
2023-04-29T11:45:54.711Z,12.60
2023-04-29T11:48:59.887Z,12.73
2023-04-29T11:52:03.319Z,11.52
2023-04-29T11:55:07.697Z,9.80
2023-04-29T11:58:11.122Z,22.02
2023-04-29T12:01:18.819Z,8.90
2023-04-29T12:04:22.672Z,6.93
2023-04-29T12:07:26.183Z,9.63
2023-04-29T12:10:29.492Z,12.75
2023-04-29T12:13:33.136Z,14.35
2023-04-29T12:16:38.712Z,7.20
2023-04-29T12:19:44.256Z,11.93
2023-04-29T12:22:48.802Z,11.63
2023-04-29T12:25:53.388Z,11.93
2023-04-29T12:28:58.411Z,11.43
2023-04-29T12:32:03.032Z,9.27
2023-04-29T12:35:07.355Z,13.65
2023-04-29T12:38:11.251Z,11.00
2023-04-29T12:41:17.527Z,7.43
2023-04-29T12:44:21.333Z,11.65
2023-04-29T12:47:34.521Z,12.73
2023-04-29T12:50:38.905Z,11.93
2023-04-29T12:53:42.185Z,10.80
2023-04-29T12:56:48.496Z,8.88
2023-04-29T12:59:52.639Z,17.10
2023-04-29T13:02:57.926Z,7.93
2023-04-29T13:06:02.675Z,10.80
2023-04-29T13:09:06.504Z,9.73
2023-04-29T13:12:09.821Z,12.00
2023-04-29T13:15:13.845Z,9.45
2023-04-29T13:18:18.660Z,7.82
2023-04-29T13:21:22.186Z,8.05
2023-04-29T13:24:25.614Z,12.93
2023-04-29T13:27:29.084Z,8.48
2023-04-29T13:30:33.066Z,9.80
2023-04-29T13:33:39.842Z,8.15
2023-04-29T13:36:43.822Z,11.48
2023-04-29T13:39:48.153Z,8.45
2023-04-29T13:42:59.566Z,8.02
2023-04-29T13:46:09.253Z,16.10
2023-04-29T13:49:42.375Z,11.38
2023-04-29T13:53:19.632Z,10.07
2023-04-29T13:56:53.369Z,11.82
2023-04-29T14:02:31.772Z,8.40
2023-04-29T14:05:37.484Z,10.98
2023-04-29T14:08:41.036Z,16.23
2023-04-29T14:11:44.508Z,7.15
2023-04-29T14:14:47.751Z,8.20
2023-04-29T14:17:51.469Z,12.73
2023-04-29T14:20:56.213Z,11.35
2023-04-29T14:23:59.715Z,11.18
2023-04-29T14:27:03.940Z,11.48
2023-04-29T14:30:08.783Z,12.65
2023-04-29T14:33:11.971Z,9.40
2023-04-29T14:36:16.615Z,13.52
2023-04-29T14:39:20.015Z,8.93
2023-04-29T14:42:23.354Z,9.35
2023-04-29T14:45:26.831Z,9.68
2023-04-29T14:48:30.043Z,8.95
2023-04-29T14:51:35.237Z,11.52
2023-04-29T14:54:38.493Z,10.38
2023-04-29T14:57:41.691Z,9.48
2023-04-29T15:00:44.967Z,8.65
2023-04-29T15:03:48.224Z,10.90
2023-04-29T15:06:53.083Z,10.20
2023-04-29T15:09:56.317Z,9.80
2023-04-29T15:12:59.679Z,9.63
2023-04-29T15:16:03.974Z,8.45
2023-04-29T15:19:07.287Z,9.38
2023-04-29T15:22:12.908Z,9.77
2023-04-29T15:25:16.225Z,10.10
2023-04-29T15:28:19.448Z,7.25
2023-04-29T15:31:24.272Z,8.82
2023-04-29T15:34:28.648Z,8.90
2023-04-29T15:37:34.798Z,11.48
2023-04-29T15:40:38.144Z,10.63
2023-04-29T15:43:41.463Z,7.90
2023-04-29T15:46:44.748Z,8.40
2023-04-29T15:49:48.024Z,7.90
2023-04-29T15:52:55.834Z,11.85
2023-04-29T15:55:59.994Z,10.15
2023-04-29T15:59:03.461Z,8.55
2023-04-29T16:02:10.764Z,9.25
2023-04-29T16:05:14.513Z,11.02
2023-04-29T16:08:19.294Z,12.30
2023-04-29T16:11:22.639Z,9.68
2023-04-29T16:14:27.044Z,12.85
2023-04-29T16:17:33.565Z,11.98
2023-04-29T16:20:38.052Z,9.73
2023-04-29T16:23:44.117Z,7.97
2023-04-29T16:26:48.308Z,7.13
2023-04-29T16:29:54.818Z,8.00
2023-04-29T16:32:59.113Z,10.07
2023-04-29T16:36:03.826Z,11.40
2023-04-29T16:39:08.647Z,12.32
2023-04-29T16:42:12.762Z,11.07
2023-04-29T16:45:16.456Z,8.18
2023-04-29T16:48:20.312Z,13.05
2023-04-29T16:51:25.737Z,9.75
2023-04-29T16:54:31.607Z,22.10
2023-04-29T16:57:35.771Z,45.42
2023-04-29T17:00:39.355Z,12.32
2023-04-29T17:03:42.982Z,12.52
2023-04-29T17:06:47.657Z,11.75
2023-04-29T17:09:52.810Z,10.55
2023-04-29T17:12:56.419Z,21.58
2023-04-29T17:15:59.834Z,20.75
2023-04-29T17:19:03.474Z,17.38
2023-04-29T17:22:08.213Z,17.10
2023-04-29T17:25:14.776Z,17.15
2023-04-29T17:28:18.197Z,14.25
2023-04-29T17:31:25.489Z,17.33
2023-04-29T17:34:30.985Z,15.85
2023-04-29T17:37:34.431Z,14.32
2023-04-29T17:40:39.468Z,17.88
2023-04-29T17:43:42.870Z,19.58
2023-04-29T17:46:46.257Z,17.15
2023-04-29T17:49:51.885Z,18.30
2023-04-29T17:52:55.505Z,19.33
2023-04-29T17:56:00.680Z,17.60
2023-04-29T17:59:05.565Z,21.77
2023-04-29T18:02:09.085Z,20.52
2023-04-29T18:05:12.439Z,22.67
2023-04-29T18:08:15.726Z,26.65
2023-04-29T18:11:21.101Z,21.92
2023-04-29T18:14:25.232Z,18.63
2023-04-29T18:17:28.902Z,16.08
2023-04-29T18:20:32.858Z,21.23
2023-04-29T18:23:36.371Z,21.50
2023-04-29T18:26:41.996Z,19.30
2023-04-29T18:29:47.320Z,21.08
2023-04-29T18:32:51.058Z,21.30
2023-04-29T18:35:55.860Z,23.83
2023-04-29T18:38:59.895Z,18.80
2023-04-29T18:42:05.347Z,20.55
2023-04-29T18:45:10.897Z,22.50
2023-04-29T18:48:15.284Z,21.17
2023-04-29T18:51:20.369Z,23.98
2023-04-29T18:54:24.979Z,22.10
2023-04-29T18:57:31.050Z,21.15
2023-04-29T19:00:35.279Z,22.98
2023-04-29T19:03:41.164Z,24.73
2023-04-29T19:06:46.572Z,22.35
2023-04-29T19:09:50.387Z,25.85
2023-04-29T19:12:55.528Z,27.60
2023-04-29T19:16:00.581Z,21.10
2023-04-29T19:19:04.799Z,22.67
2023-04-29T19:22:08.894Z,28.98
2023-04-29T19:25:13.440Z,20.88
2023-04-29T19:28:19.708Z,22.20
2023-04-29T19:31:24.899Z,23.30
2023-04-29T19:34:29.282Z,20.33
2023-04-29T19:37:33.693Z,23.08
2023-04-29T19:40:38.847Z,20.40
2023-04-29T19:43:44.694Z,21.48
2023-04-29T19:46:51.841Z,21.55
2023-04-29T19:49:56.109Z,21.75
2023-04-29T19:52:59.806Z,22.50
2023-04-29T19:56:03.159Z,20.33
2023-04-29T19:59:07.930Z,20.98
2023-04-29T20:02:12.791Z,25.88
2023-04-29T20:05:16.434Z,17.85
2023-04-29T20:08:20.049Z,18.33
2023-04-29T20:11:24.032Z,21.55
2023-04-29T20:14:28.671Z,20.15
2023-04-29T20:17:32.129Z,24.30
2023-04-29T20:20:35.847Z,21.10
2023-04-29T20:23:39.275Z,24.25
2023-04-29T20:26:42.911Z,21.63
2023-04-29T20:29:49.986Z,21.80
2023-04-29T20:33:09.272Z,27.55
2023-04-29T20:36:18.960Z,27.00
2023-04-29T20:39:27.441Z,25.48
2023-04-29T20:42:33.932Z,27.48
2023-04-29T20:45:43.767Z,34.63
2023-04-29T20:48:53.690Z,32.65
2023-04-29T20:52:02.539Z,30.50
2023-04-29T20:55:10.268Z,19.07
2023-04-29T20:58:20.785Z,30.05
2023-04-29T21:01:31.585Z,22.65
2023-04-29T21:07:46.769Z,19.37
2023-04-29T21:10:57.798Z,23.05
2023-04-29T21:14:05.203Z,26.42
2023-04-29T21:17:14.322Z,26.52
2023-04-29T21:20:22.168Z,21.15
2023-04-29T21:23:30.298Z,26.42
2023-04-29T21:26:36.019Z,22.77
2023-04-29T21:29:42.763Z,24.83
2023-04-29T21:32:50.078Z,30.20
2023-04-29T21:36:03.559Z,27.45
2023-04-29T21:39:18.219Z,27.55
2023-04-29T21:42:35.071Z,26.73
2023-04-29T21:45:39.596Z,24.27
2023-04-29T21:48:44.572Z,25.17
2023-04-29T21:51:49.246Z,26.45
2023-04-29T21:54:52.635Z,23.70
2023-04-29T21:57:55.968Z,25.40
2023-04-29T22:01:03.106Z,26.13
2023-04-29T22:04:08.506Z,26.20
2023-04-29T22:07:12.189Z,29.13
2023-04-29T22:10:15.659Z,22.02
2023-04-29T22:13:19.004Z,26.25
2023-04-29T22:16:23.550Z,21.15
2023-04-29T22:19:30.108Z,25.33
2023-04-29T22:22:33.476Z,23.83
2023-04-29T22:25:37.144Z,26.30
2023-04-29T22:28:40.449Z,21.27
2023-04-29T22:31:44.398Z,25.67
2023-04-29T22:34:49.155Z,19.98
2023-04-29T22:37:52.800Z,26.67
2023-04-29T22:40:57.202Z,22.45
2023-04-29T22:44:01.318Z,22.73
2023-04-29T22:47:04.910Z,25.10
2023-04-29T22:50:11.236Z,23.50
2023-04-29T22:53:14.434Z,23.80
2023-04-29T22:56:18.041Z,26.42
2023-04-29T22:59:21.362Z,22.25
2023-04-29T23:02:28.849Z,24.95
2023-04-29T23:05:33.510Z,24.25
2023-04-29T23:08:36.812Z,25.35
2023-04-29T23:11:40.146Z,26.20
2023-04-29T23:14:43.345Z,28.30
2023-04-29T23:17:46.680Z,25.45
2023-04-29T23:20:51.287Z,24.52
2023-04-29T23:23:54.953Z,31.58
2023-04-29T23:26:58.226Z,27.98
2023-04-29T23:30:02.328Z,23.80
2023-04-29T23:33:05.699Z,26.23
2023-04-29T23:36:11.309Z,22.90
2023-04-29T23:39:14.469Z,23.70
2023-04-29T23:42:17.645Z,23.73
2023-04-29T23:45:20.840Z,20.45
2023-04-29T23:48:24.148Z,20.30
2023-04-29T23:51:29.154Z,20.77
2023-04-29T23:54:32.350Z,21.17
2023-04-29T23:57:35.531Z,19.88
